Time;durP1;ratioP1;P1;durP2;ratioP2;P2;SDS_P1;SDS_P2;PMS_P1;PMS_P2;Temp;Humidity;BMP_temperature;BMP_pressure;BME280_temperature;BME280_humidity;BME280_pressure;Samples;Min_cycle;Max_cycle;Signal;HPM_P1;HPM_P2
2023/03/18 00:00:25;;;;;;;;;0.50;0.50;;;;;12.14;65.08;99163.66;5114486;28;8928;-61
2023/03/18 00:02:53;;;;;;;;;1.00;1.00;;;;;12.17;65.54;99166.03;5114879;28;8824;-58
2023/03/18 00:05:21;;;;;;;;;3.25;3.25;;;;;12.21;65.52;99162.06;5114287;28;8812;-58
2023/03/18 00:07:49;;;;;;;;;4.00;4.00;;;;;12.24;64.87;99161.78;5115090;28;8832;-61
2023/03/18 00:10:17;;;;;;;;;1.00;1.00;;;;;12.27;65.27;99156.97;5115415;28;8848;-61
2023/03/18 00:12:45;;;;;;;;;3.50;2.50;;;;;12.28;65.60;99153.31;5115238;28;8816;-60
2023/03/18 00:15:13;;;;;;;;;3.75;3.75;;;;;12.29;64.89;99164.81;5115744;28;8831;-58
2023/03/18 00:17:41;;;;;;;;;3.75;3.75;;;;;12.29;64.87;99162.16;5115537;28;8827;-60
2023/03/18 00:20:08;;;;;;;;;3.00;3.00;;;;;12.31;64.68;99157.53;5115758;28;8860;-59
2023/03/18 00:22:36;;;;;;;;;5.50;4.50;;;;;12.30;64.96;99162.00;5115913;28;8990;-59
2023/03/18 00:25:04;;;;;;;;;4.00;3.00;;;;;12.30;64.99;99154.00;5115106;28;8838;-58
2023/03/18 00:27:32;;;;;;;;;6.25;6.00;;;;;12.30;65.03;99153.16;5114706;28;8827;-59
2023/03/18 00:30:00;;;;;;;;;5.50;4.50;;;;;12.31;65.67;99160.19;5115342;28;8843;-59
2023/03/18 00:32:28;;;;;;;;;2.50;2.00;;;;;12.30;65.18;99162.00;5115482;28;8847;-58
2023/03/18 00:34:56;;;;;;;;;4.00;3.75;;;;;12.28;65.56;99164.00;5115972;28;8851;-58
2023/03/18 00:37:30;;;;;;;;;3.75;3.50;;;;;12.28;65.86;99155.13;5116069;28;8836;-59
2023/03/18 00:39:58;;;;;;;;;3.75;3.00;;;;;12.28;66.26;99169.34;5115633;28;8859;-59
2023/03/18 00:42:26;;;;;;;;;8.00;5.50;;;;;12.27;65.96;99159.66;5115796;28;8925;-61
2023/03/18 00:44:54;;;;;;;;;3.00;3.00;;;;;12.27;66.14;99156.13;5116096;28;8832;-59
2023/03/18 00:47:22;;;;;;;;;5.00;3.50;;;;;12.27;65.99;99156.13;5115886;28;8834;-61
2023/03/18 00:49:50;;;;;;;;;3.75;3.50;;;;;12.25;66.73;99153.59;5116173;28;8978;-58
2023/03/18 00:52:18;;;;;;;;;3.00;3.00;;;;;12.25;66.12;99150.94;5115864;28;8871;-59
2023/03/18 00:54:46;;;;;;;;;4.50;4.50;;;;;12.26;66.07;99154.44;5115641;28;8811;-60
2023/03/18 00:57:14;;;;;;;;;4.00;4.00;;;;;12.25;66.72;99153.59;5115819;28;8838;-61
2023/03/18 00:59:42;;;;;;;;;4.00;4.00;;;;;12.25;66.19;99158.13;5115878;28;9687;-59
2023/03/18 01:02:10;;;;;;;;;4.00;4.00;;;;;12.24;66.56;99156.44;5115662;28;8921;-59
2023/03/18 01:04:38;;;;;;;;;5.00;5.00;;;;;12.23;66.48;99150.25;5116443;28;9501;-60
2023/03/18 01:07:06;;;;;;;;;5.50;5.50;;;;;12.22;66.51;99150.41;5119365;28;8823;-61
2023/03/18 01:09:34;;;;;;;;;4.50;4.00;;;;;12.23;66.66;99147.59;5119470;28;9868;-58
2023/03/18 01:12:02;;;;;;;;;3.00;3.00;;;;;12.22;66.88;99153.06;5119453;28;9551;-60
2023/03/18 01:14:29;;;;;;;;;4.00;3.50;;;;;12.23;67.14;99152.09;5119410;28;8838;-60
2023/03/18 01:16:57;;;;;;;;;3.25;3.00;;;;;12.21;66.78;99146.91;5119241;28;8824;-61
2023/03/18 01:19:26;;;;;;;;;3.00;2.50;;;;;12.21;66.64;99144.22;5119206;28;8816;-59
2023/03/18 01:21:53;;;;;;;;;3.00;3.00;;;;;12.22;66.75;99153.06;5119222;28;8816;-61
2023/03/18 01:24:23;;;;;;;;;3.50;3.00;;;;;12.18;66.94;99141.88;5119356;28;8840;-61
2023/03/18 01:26:50;;;;;;;;;2.50;2.50;;;;;12.16;67.37;99151.84;5119297;28;9497;-61
2023/03/18 01:29:19;;;;;;;;;5.25;3.00;;;;;12.14;67.49;99161.84;5119224;28;8919;-61
2023/03/18 01:31:47;;;;;;;;;4.00;4.00;;;;;12.12;67.46;99147.81;5119355;28;8863;-60
2023/03/18 01:34:15;;;;;;;;;6.50;6.00;;;;;12.12;67.16;99152.31;5118974;28;8954;-61
2023/03/18 01:36:43;;;;;;;;;3.75;3.50;;;;;12.13;67.61;99162.84;5119085;28;8823;-61
2023/03/18 01:39:11;;;;;;;;;6.75;6.50;;;;;12.15;67.63;99163.53;5119088;28;8831;-60
2023/03/18 01:41:39;;;;;;;;;1.00;1.00;;;;;12.17;67.63;99166.03;5119018;28;8820;-59
2023/03/18 01:44:06;;;;;;;;;3.50;3.50;;;;;12.16;67.66;99164.38;5118655;28;8827;-60
2023/03/18 01:46:34;;;;;;;;;4.00;3.50;;;;;12.18;67.25;99162.38;5118818;28;8847;-60
2023/03/18 01:49:02;;;;;;;;;5.00;5.00;;;;;12.18;67.79;99160.56;5118637;28;8865;-60
2023/03/18 01:51:30;;;;;;;;;5.50;5.50;;;;;12.18;67.57;99157.03;5118322;28;8836;-59
2023/03/18 01:53:59;;;;;;;;;4.00;4.00;;;;;12.17;67.59;99158.03;5119030;28;8960;-61
2023/03/18 01:56:26;;;;;;;;;6.25;6.00;;;;;12.15;67.50;99154.69;5117030;28;8824;-59
2023/03/18 01:58:54;;;;;;;;;5.00;4.00;;;;;12.12;67.95;99162.97;5118775;28;8846;-59
2023/03/18 02:01:22;;;;;;;;;4.00;4.00;;;;;12.12;67.97;99161.16;5118694;28;8828;-60
2023/03/18 02:03:50;;;;;;;;;2.50;2.00;;;;;12.13;68.13;99157.50;5118249;28;8846;-61
2023/03/18 02:06:18;;;;;;;;;3.75;3.75;;;;;12.17;67.81;99160.72;5118349;28;9559;-59
2023/03/18 02:08:46;;;;;;;;;4.00;3.50;;;;;12.21;67.85;99151.38;5118756;28;8886;-59
2023/03/18 02:11:14;;;;;;;;;3.75;3.75;;;;;12.24;67.42;99145.75;5118061;28;8840;-60
2023/03/18 02:13:42;;;;;;;;;3.50;3.50;;;;;12.27;67.14;99150.78;5118503;28;8843;-61
2023/03/18 02:16:10;;;;;;;;;3.50;3.50;;;;;12.28;66.89;99147.13;5117470;28;8832;-61
2023/03/18 02:18:38;;;;;;;;;4.00;4.00;;;;;12.31;67.12;99149.50;5118532;28;9576;-59
2023/03/18 02:21:07;;;;;;;;;7.00;4.50;;;;;12.32;67.19;99153.84;5118345;28;8912;-61
2023/03/18 02:23:35;;;;;;;;;3.75;3.75;;;;;12.35;67.41;99149.03;5118106;28;8819;-60
2023/03/18 02:26:03;;;;;;;;;3.00;3.00;;;;;12.37;67.48;99154.22;5118225;28;8967;-59
2023/03/18 02:28:31;;;;;;;;;4.50;4.00;;;;;12.39;67.14;99158.41;5117764;28;8846;-61
2023/03/18 02:30:59;;;;;;;;;3.75;3.50;;;;;12.41;67.44;99164.47;5118547;28;9497;-58
2023/03/18 02:33:27;;;;;;;;;6.00;4.00;;;;;12.41;67.64;99169.81;5118182;28;8836;-59
2023/03/18 02:35:54;;;;;;;;;4.50;4.00;;;;;12.43;68.09;99164.28;5118051;28;8820;-58
2023/03/18 02:38:23;;;;;;;;;3.25;3.00;;;;;12.44;67.79;99165.97;5117993;28;8942;-59
2023/03/18 02:40:51;;;;;;;;;3.00;3.00;;;;;12.45;67.65;99173.00;5117948;28;8941;-59
2023/03/18 02:43:18;;;;;;;;;4.50;4.50;;;;;12.46;67.78;99164.81;5118359;28;8844;-59
2023/03/18 02:45:46;;;;;;;;;5.00;4.50;;;;;12.47;67.58;99149.66;5117538;28;8839;-60
2023/03/18 02:48:14;;;;;;;;;3.50;3.50;;;;;12.41;68.12;99137.75;5117472;28;8954;-59
2023/03/18 02:50:41;;;;;;;;;3.75;3.75;;;;;12.33;68.01;99143.03;5117750;28;8827;-59
2023/03/18 02:53:09;;;;;;;;;6.00;2.00;;;;;12.29;68.66;99138.97;5117533;28;8844;-59
2023/03/18 02:55:37;;;;;;;;;6.00;4.00;;;;;12.25;68.26;99137.59;5117264;28;8830;-59
2023/03/18 02:58:04;;;;;;;;;1.00;1.00;;;;;12.20;68.77;99139.03;5117602;28;8831;-59
2023/03/18 03:00:32;;;;;;;;;6.00;3.00;;;;;12.12;68.96;99138.97;5117799;28;9512;-60
2023/03/18 03:03:00;;;;;;;;;4.75;3.50;;;;;12.02;69.37;99139.03;5117764;28;8844;-60
2023/03/18 03:05:28;;;;;;;;;4.00;3.75;;;;;11.96;69.96;99154.81;5117774;28;9514;-59
2023/03/18 03:07:56;;;;;;;;;3.75;3.25;;;;;11.87;70.00;99158.38;5117268;28;8820;-61
2023/03/18 03:10:23;;;;;;;;;6.00;4.50;;;;;11.80;69.80;99146.63;5117358;28;8823;-58
2023/03/18 03:12:51;;;;;;;;;5.50;5.50;;;;;11.74;70.41;99149.88;5117098;28;8827;-58
2023/03/18 03:15:20;;;;;;;;;5.50;5.00;;;;;11.70;70.54;99156.50;5117533;28;8870;-59
2023/03/18 03:17:48;;;;;;;;;6.50;6.25;;;;;11.68;70.52;99158.47;5117149;28;8924;-59
2023/03/18 03:20:17;;;;;;;;;5.50;5.50;;;;;11.63;70.71;99155.41;5116821;28;8956;-61
2023/03/18 03:22:44;;;;;;;;;6.75;6.75;;;;;11.60;70.54;99166.38;5117218;28;8836;-59
2023/03/18 03:25:12;;;;;;;;;9.00;7.00;;;;;11.55;70.21;99167.75;5116824;28;8838;-59
2023/03/18 03:27:40;;;;;;;;;3.50;3.50;;;;;11.52;71.00;99168.06;5116082;28;8830;-61
2023/03/18 03:30:08;;;;;;;;;6.00;4.00;;;;;11.49;70.75;99168.34;5116321;28;8914;-61
2023/03/18 03:32:36;;;;;;;;;6.75;5.00;;;;;11.45;71.18;99177.63;5116952;28;8828;-59
2023/03/18 03:35:04;;;;;;;;;6.50;6.50;;;;;11.40;71.39;99174.56;5116563;28;8962;-59
2023/03/18 03:37:32;;;;;;;;;5.25;4.50;;;;;11.35;70.93;99164.34;5116742;28;8862;-58
2023/03/18 03:40:00;;;;;;;;;6.50;5.00;;;;;11.32;71.72;99167.31;5116848;28;8832;-59
2023/03/18 03:42:28;;;;;;;;;6.25;6.00;;;;;11.32;71.49;99177.97;5116196;28;8820;-60
2023/03/18 03:44:56;;;;;;;;;6.75;6.75;;;;;11.32;71.57;99177.97;5117568;28;8930;-59
2023/03/18 03:47:23;;;;;;;;;8.00;5.00;;;;;11.34;71.18;99172.47;5116709;28;9541;-59
2023/03/18 03:49:51;;;;;;;;;4.00;4.00;;;;;11.33;71.35;99184.97;5116847;28;8840;-60
2023/03/18 03:52:19;;;;;;;;;5.50;4.50;;;;;11.35;71.38;99185.66;5116211;28;8857;-60
2023/03/18 03:54:47;;;;;;;;;8.50;6.50;;;;;11.37;71.07;99186.34;5116393;28;8808;-59
2023/03/18 03:57:14;;;;;;;;;4.00;4.00;;;;;11.42;71.32;99188.56;5116331;28;8816;-61
2023/03/18 03:59:42;;;;;;;;;9.00;6.75;;;;;11.42;70.92;99186.75;5116297;28;8832;-61
2023/03/18 04:02:10;;;;;;;;;9.00;7.00;;;;;11.43;71.47;99184.91;5116527;28;8960;-59
2023/03/18 04:04:37;;;;;;;;;5.00;5.00;;;;;11.39;71.38;99184.38;5116193;28;8827;-61
2023/03/18 04:07:05;;;;;;;;;6.00;5.50;;;;;11.37;71.38;99191.69;5115630;28;8925;-61
2023/03/18 04:09:33;;;;;;;;;6.00;5.50;;;;;11.31;72.08;99194.91;5115135;28;8812;-59
2023/03/18 04:12:01;;;;;;;;;7.00;7.00;;;;;11.26;71.49;99199.88;5114877;28;8843;-59
2023/03/18 04:14:28;;;;;;;;;4.00;3.50;;;;;11.20;72.22;99199.59;5116000;28;8922;-61
2023/03/18 04:16:59;;;;;;;;;5.75;5.75;;;;;11.17;72.17;99198.06;5115448;28;9509;-61
2023/03/18 04:19:27;;;;;;;;;6.50;6.00;;;;;11.12;72.31;99200.31;5116620;28;8836;-58
2023/03/18 04:21:55;;;;;;;;;6.75;6.75;;;;;11.07;72.52;99201.75;5116203;28;9625;-58
2023/03/18 04:24:23;;;;;;;;;7.00;7.00;;;;;11.02;72.50;99207.50;5115717;28;8805;-60
2023/03/18 04:26:50;;;;;;;;;6.00;6.00;;;;;10.98;72.88;99210.56;5115737;28;8824;-58
2023/03/18 04:29:18;;;;;;;;;5.50;5.50;;;;;10.93;72.96;99210.16;5115649;28;8831;-60
2023/03/18 04:31:45;;;;;;;;;6.50;6.50;;;;;10.90;72.69;99218.44;5115729;28;8840;-61
2023/03/18 04:34:13;;;;;;;;;8.50;6.75;;;;;10.88;72.40;99209.75;5115734;28;8828;-59
2023/03/18 04:36:41;;;;;;;;;9.00;7.50;;;;;10.85;72.53;99215.38;5115753;28;8824;-61
2023/03/18 04:39:09;;;;;;;;;6.75;6.25;;;;;10.84;73.44;99213.69;5115748;28;8828;-60
2023/03/18 04:41:37;;;;;;;;;10.00;7.50;;;;;10.82;72.98;99224.47;5119708;28;8819;-60
2023/03/18 04:44:06;;;;;;;;;1.25;0.75;;;;;10.81;72.85;99222.78;5120525;28;8846;-59
2023/03/18 04:46:33;;;;;;;;;6.75;6.75;;;;;10.77;72.87;99225.88;5119704;28;8816;-60
2023/03/18 04:49:01;;;;;;;;;6.00;4.50;;;;;10.72;73.44;99225.47;5119230;28;8860;-59
2023/03/18 04:51:28;;;;;;;;;6.25;6.25;;;;;10.68;73.08;99232.03;5119949;28;8848;-58
2023/03/18 04:53:56;;;;;;;;;7.50;6.00;;;;;10.65;73.12;99230.50;5119645;28;8840;-61
2023/03/18 04:56:24;;;;;;;;;6.50;6.50;;;;;10.62;73.31;99230.78;5119526;28;8954;-59
2023/03/18 04:58:52;;;;;;;;;6.50;6.25;;;;;10.62;73.18;99229.94;5120264;28;8823;-59
2023/03/18 05:01:20;;;;;;;;;9.25;9.00;;;;;10.63;73.53;99243.09;5119073;28;8831;-59
2023/03/18 05:03:47;;;;;;;;;7.00;6.25;;;;;10.66;73.64;99248.16;5119968;28;8824;-59
2023/03/18 05:06:17;;;;;;;;;3.00;0.75;;;;;10.69;73.74;99236.41;5119610;28;8828;-60
2023/03/18 05:08:45;;;;;;;;;7.50;6.50;;;;;10.72;73.40;99244.09;5119656;28;8851;-61
2023/03/18 05:11:12;;;;;;;;;7.00;7.00;;;;;10.76;73.13;99249.00;5118842;28;8839;-59
2023/03/18 05:13:40;;;;;;;;;8.75;8.25;;;;;10.80;73.49;99239.75;5119295;28;8858;-61
2023/03/18 05:16:08;;;;;;;;;8.25;8.00;;;;;10.86;72.86;99249.00;5119240;28;8881;-60
2023/03/18 05:18:36;;;;;;;;;6.75;6.75;;;;;10.89;73.21;99249.56;5119516;28;8920;-61
2023/03/18 05:21:04;;;;;;;;;6.50;6.25;;;;;10.91;72.80;99252.91;5119188;28;8893;-59
2023/03/18 05:23:32;;;;;;;;;12.25;9.50;;;;;10.94;72.91;99249.97;5119032;28;8816;-58
2023/03/18 05:25:59;;;;;;;;;5.00;5.00;;;;;10.97;72.79;99247.03;5118873;28;9239;-60
2023/03/18 05:28:27;;;;;;;;;9.25;9.00;;;;;11.04;73.17;99241.97;5118715;28;8939;-59
2023/03/18 05:30:55;;;;;;;;;7.00;6.75;;;;;11.10;73.29;99244.94;5118961;28;8834;-59
2023/03/18 05:33:23;;;;;;;;;5.50;5.50;;;;;11.15;72.76;99241.84;5119102;28;8832;-60
2023/03/18 05:35:51;;;;;;;;;10.00;7.00;;;;;11.21;72.44;99250.09;5119167;28;8901;-60
2023/03/18 05:38:18;;;;;;;;;8.00;7.00;;;;;11.26;72.89;99241.66;5119015;28;8828;-61
2023/03/18 05:40:46;;;;;;;;;6.25;6.00;;;;;11.31;72.38;99244.75;5118998;28;8840;-58
2023/03/18 05:43:14;;;;;;;;;8.00;7.00;;;;;11.34;72.45;99244.44;5120354;28;8808;-59
2023/03/18 05:45:42;;;;;;;;;4.50;4.50;;;;;11.37;72.87;99250.31;5119387;28;8835;-59
2023/03/18 05:48:10;;;;;;;;;5.25;4.50;;;;;11.41;72.94;99257.06;5118215;28;8867;-60
2023/03/18 05:50:38;;;;;;;;;6.75;6.50;;;;;11.43;72.61;99252.41;5118617;28;8870;-59
2023/03/18 05:53:05;;;;;;;;;9.50;7.00;;;;;11.49;72.88;99245.66;5117997;28;8839;-58
2023/03/18 05:55:33;;;;;;;;;10.00;7.50;;;;;11.53;72.84;99244.41;5118074;28;8820;-60
2023/03/18 05:58:01;;;;;;;;;6.25;6.00;;;;;11.55;72.79;99247.75;5117920;28;8846;-61
2023/03/18 06:00:29;;;;;;;;;6.75;6.50;;;;;11.58;72.35;99255.50;5118254;28;8816;-58
2023/03/18 06:02:57;;;;;;;;;9.00;8.50;;;;;11.60;73.00;99250.88;5118409;28;8836;-59
2023/03/18 06:05:25;;;;;;;;;6.50;6.00;;;;;11.61;73.01;99250.69;5118613;28;8820;-59
2023/03/18 06:07:52;;;;;;;;;6.00;6.00;;;;;11.64;73.09;99262.91;5119099;28;9485;-58
2023/03/18 06:10:21;;;;;;;;;7.25;6.00;;;;;11.69;72.87;99272.16;5118145;28;8827;-60
2023/03/18 06:12:49;;;;;;;;;9.25;8.00;;;;;11.74;72.57;99264.56;5117902;28;8820;-61
2023/03/18 06:15:17;;;;;;;;;7.00;7.00;;;;;11.82;73.11;99266.53;5117924;28;8812;-59
2023/03/18 06:17:45;;;;;;;;;9.00;7.50;;;;;11.88;73.03;99269.44;5118094;28;8907;-61
2023/03/18 06:20:13;;;;;;;;;6.00;5.00;;;;;11.94;73.16;99268.84;5117845;28;8876;-61
2023/03/18 06:22:40;;;;;;;;;4.00;4.00;;;;;11.99;73.15;99274.56;5118211;28;8832;-58
2023/03/18 06:25:08;;;;;;;;;7.00;6.00;;;;;12.01;72.95;99277.94;5117647;28;8859;-58
2023/03/18 06:27:36;;;;;;;;;12.00;9.50;;;;;12.02;72.56;99280.44;5117548;28;8835;-58
2023/03/18 06:30:04;;;;;;;;;4.50;3.75;;;;;12.03;72.50;99290.16;5116336;28;8836;-59
2023/03/18 06:32:32;;;;;;;;;6.75;6.75;;;;;12.04;72.80;99280.31;5116669;28;8851;-59
2023/03/18 06:35:01;;;;;;;;;6.00;6.00;;;;;12.06;72.35;99291.66;5117172;28;8929;-60
2023/03/18 06:37:28;;;;;;;;;6.50;5.00;;;;;12.06;73.11;99287.19;5116740;28;8808;-61
2023/03/18 06:39:56;;;;;;;;;4.00;4.00;;;;;12.06;72.93;99297.88;5117109;28;8828;-60
2023/03/18 06:42:26;;;;;;;;;6.50;3.75;;;;;12.07;72.98;99298.72;5118242;28;8840;-61
2023/03/18 06:44:55;;;;;;;;;7.00;6.25;;;;;12.09;73.08;99302.06;5117094;28;8928;-59
2023/03/18 06:47:23;;;;;;;;;4.50;4.00;;;;;12.10;73.08;99298.41;5117179;28;8824;-60
2023/03/18 06:49:51;;;;;;;;;5.50;4.00;;;;;12.12;72.94;99301.75;5116874;28;8882;-59
2023/03/18 06:52:19;;;;;;;;;6.00;3.75;;;;;12.13;72.67;99304.28;5116172;28;8832;-59
2023/03/18 06:54:46;;;;;;;;;8.00;7.00;;;;;12.16;73.24;99305.84;5115800;28;8859;-59
2023/03/18 06:57:16;;;;;;;;;5.00;4.75;;;;;12.18;72.93;99303.84;5117094;28;8836;-61
2023/03/18 06:59:44;;;;;;;;;7.00;6.50;;;;;12.20;72.56;99307.19;5115874;28;8925;-60
2023/03/18 07:02:12;;;;;;;;;8.50;8.00;;;;;12.22;72.41;99311.41;5115423;28;9521;-60
2023/03/18 07:04:39;;;;;;;;;6.75;6.75;;;;;12.22;72.96;99310.56;5116189;28;8866;-59
2023/03/18 07:07:07;;;;;;;;;7.75;6.75;;;;;12.23;72.63;99320.28;5115326;28;8816;-58
2023/03/18 07:09:35;;;;;;;;;1.00;1.00;;;;;12.23;72.38;99321.09;5116026;28;8840;-59
2023/03/18 07:12:05;;;;;;;;;4.00;3.75;;;;;12.23;72.89;99322.94;5115366;28;8826;-59
2023/03/18 07:14:32;;;;;;;;;6.50;6.00;;;;;12.24;72.53;99327.28;5115096;28;8883;-59
2023/03/18 07:17:01;;;;;;;;;5.50;5.50;;;;;12.24;72.81;99324.63;5115613;28;8832;-58
2023/03/18 07:19:28;;;;;;;;;6.00;5.50;;;;;12.26;73.33;99325.31;5115578;28;8854;-58
2023/03/18 07:21:56;;;;;;;;;7.00;6.00;;;;;12.27;72.91;99335.00;5115691;28;8839;-58
2023/03/18 07:24:25;;;;;;;;;6.25;6.00;;;;;12.26;72.85;99333.31;5116200;28;8827;-60
2023/03/18 07:26:53;;;;;;;;;7.50;7.50;;;;;12.26;72.57;99331.50;5116106;28;8832;-60
2023/03/18 07:29:21;;;;;;;;;10.00;9.00;;;;;12.28;73.07;99331.31;5115875;28;9513;-59
2023/03/18 07:31:48;;;;;;;;;3.50;3.50;;;;;12.28;72.90;99334.00;5115529;28;8847;-59
2023/03/18 07:34:17;;;;;;;;;3.00;2.50;;;;;12.30;72.66;99338.22;5115120;28;8840;-61
2023/03/18 07:36:45;;;;;;;;;5.00;3.00;;;;;12.33;72.98;99342.41;5115965;28;8882;-60
2023/03/18 07:39:13;;;;;;;;;6.75;6.75;;;;;12.37;72.68;99344.63;5115726;28;8843;-61
2023/03/18 07:41:41;;;;;;;;;7.50;7.00;;;;;12.44;72.11;99350.22;5116117;28;8827;-58
2023/03/18 07:44:09;;;;;;;;;4.00;4.00;;;;;12.51;71.90;99346.81;5117148;28;8942;-58
2023/03/18 07:46:37;;;;;;;;;8.75;7.00;;;;;12.58;72.08;99352.41;5116018;28;8835;-60
2023/03/18 07:49:05;;;;;;;;;7.00;6.50;;;;;12.64;71.78;99346.47;5115348;28;8852;-59
2023/03/18 07:51:33;;;;;;;;;6.75;6.75;;;;;12.72;72.04;99350.06;5115492;28;8962;-61
2023/03/18 07:54:00;;;;;;;;;5.00;4.50;;;;;12.80;71.74;99352.84;5116148;28;8851;-60
2023/03/18 07:56:28;;;;;;;;;8.50;7.00;;;;;12.85;71.48;99355.88;5115389;28;8824;-60
2023/03/18 07:58:56;;;;;;;;;1.00;1.00;;;;;12.89;71.24;99351.06;5114653;28;8866;-60
2023/03/18 08:01:24;;;;;;;;;7.00;7.00;;;;;12.96;70.96;99357.53;5116219;28;8840;-59
2023/03/18 08:03:52;;;;;;;;;6.50;5.00;;;;;13.05;70.67;99357.47;5115679;28;8816;-61
2023/03/18 08:06:20;;;;;;;;;7.00;7.00;;;;;13.14;71.05;99361.06;5114945;28;8835;-60
2023/03/18 08:08:48;;;;;;;;;5.00;5.00;;;;;13.21;70.57;99367.50;5115263;28;8835;-59
2023/03/18 08:11:15;;;;;;;;;4.50;4.50;;;;;13.26;70.46;99367.84;5114934;28;8839;-59
2023/03/18 08:13:43;;;;;;;;;6.00;6.00;;;;;13.35;70.66;99369.63;5114138;28;8953;-61
2023/03/18 08:16:12;;;;;;;;;6.00;6.00;;;;;13.44;70.89;99379.41;5112904;28;8894;-60
2023/03/18 08:18:40;;;;;;;;;7.25;5.00;;;;;13.51;70.46;99372.44;5114137;28;9555;-61
2023/03/18 08:21:08;;;;;;;;;6.00;4.50;;;;;13.61;70.12;99375.88;5114444;28;8848;-60
2023/03/18 08:23:36;;;;;;;;;10.50;7.50;;;;;13.70;69.99;99382.97;5114393;28;9735;-61
2023/03/18 08:26:03;;;;;;;;;8.50;7.50;;;;;13.84;69.24;99380.59;5114661;28;8823;-61
2023/03/18 08:28:31;;;;;;;;;3.00;3.00;;;;;13.93;69.02;99384.13;5114821;28;8919;-61
2023/03/18 08:31:00;;;;;;;;;6.00;3.00;;;;;13.98;69.07;99379.16;5114077;28;9540;-58
2023/03/18 08:33:27;;;;;;;;;5.00;4.00;;;;;14.03;69.14;99391.06;5114263;28;8895;-59
2023/03/18 08:35:56;;;;;;;;;6.00;4.50;;;;;14.08;68.87;99390.59;5113350;28;8835;-61
2023/03/18 08:38:24;;;;;;;;;6.00;6.00;;;;;14.11;69.19;99387.63;5114141;28;9595;-58
2023/03/18 08:40:52;;;;;;;;;3.50;3.50;;;;;14.12;68.81;99400.00;5113970;28;8959;-61
2023/03/18 08:43:21;;;;;;;;;9.50;9.50;;;;;14.12;68.65;99395.47;5115622;28;8940;-59
2023/03/18 08:45:48;;;;;;;;;7.00;7.00;;;;;14.13;68.89;99399.00;5114625;28;8828;-59
2023/03/18 08:48:16;;;;;;;;;6.50;6.00;;;;;14.13;68.78;99399.81;5114690;28;8995;-59
2023/03/18 08:50:45;;;;;;;;;9.00;7.50;;;;;14.17;68.62;99395.00;5115196;28;8990;-61
2023/03/18 08:53:13;;;;;;;;;4.00;4.00;;;;;14.22;68.40;99398.09;5114826;28;8854;-60
2023/03/18 08:55:41;;;;;;;;;9.00;7.00;;;;;14.22;68.97;99395.41;5114732;28;8858;-62
2023/03/18 08:58:09;;;;;;;;;5.75;4.00;;;;;14.25;68.43;99408.47;5114407;28;8815;-60
2023/03/18 09:00:36;;;;;;;;;10.50;9.00;;;;;14.30;68.49;99407.03;5113705;28;8832;-59
2023/03/18 09:03:04;;;;;;;;;7.00;7.00;;;;;14.38;68.16;99407.06;5114629;28;8856;-59
2023/03/18 09:05:33;;;;;;;;;3.00;3.00;;;;;14.53;67.84;99396.56;5113980;28;8844;-59
2023/03/18 09:08:02;;;;;;;;;6.75;6.50;;;;;14.64;67.45;99399.81;5113990;28;8905;-59
2023/03/18 09:10:30;;;;;;;;;8.50;7.00;;;;;14.77;67.72;99396.69;5113399;28;8826;-59
2023/03/18 09:12:58;;;;;;;;;6.50;4.50;;;;;14.88;67.23;99401.75;5114402;28;9524;-60
2023/03/18 09:15:26;;;;;;;;;9.00;9.00;;;;;14.96;66.74;99396.44;5113666;28;9544;-60
2023/03/18 09:17:55;;;;;;;;;7.50;7.50;;;;;15.05;67.08;99398.13;5114606;28;8834;-59
2023/03/18 09:20:38;;;;;;;;;7.75;6.00;;;;;15.20;66.34;99404.53;5113612;28;8870;-59
2023/03/18 09:23:06;;;;;;;;;9.00;9.00;;;;;15.31;65.91;99409.59;5113182;28;8923;-60
2023/03/18 09:25:34;;;;;;;;;10.00;9.00;;;;;15.42;66.22;99403.94;5114345;28;8942;-61
2023/03/18 09:28:02;;;;;;;;;7.50;6.50;;;;;15.60;64.98;99399.25;5116101;28;9630;-59
2023/03/18 09:30:30;;;;;;;;;14.50;12.75;;;;;15.81;65.00;99410.34;5116059;28;8842;-59
2023/03/18 09:32:58;;;;;;;;;14.00;11.75;;;;;15.90;64.92;99423.59;5116131;28;8839;-59
2023/03/18 09:35:27;;;;;;;;;7.25;7.25;;;;;15.80;64.89;99414.03;5116737;28;8848;-59
2023/03/18 09:37:56;;;;;;;;;5.50;5.00;;;;;15.65;65.40;99419.25;5116159;28;8867;-58
2023/03/18 09:40:24;;;;;;;;;9.75;9.25;;;;;15.51;65.24;99417.22;5115850;28;8862;-59
2023/03/18 09:42:52;;;;;;;;;11.50;9.00;;;;;15.51;65.91;99411.00;5115843;28;8839;-59
2023/03/18 09:45:19;;;;;;;;;9.75;9.00;;;;;15.54;65.45;99410.69;5116184;28;8824;-59
2023/03/18 09:47:49;;;;;;;;;8.00;7.00;;;;;15.52;65.62;99413.50;5115956;28;8839;-59
2023/03/18 09:50:18;;;;;;;;;9.75;9.75;;;;;15.53;65.38;99414.34;5114745;28;8824;-60
2023/03/18 09:52:46;;;;;;;;;8.00;7.75;;;;;15.51;65.66;99411.00;5115972;28;8847;-59
2023/03/18 09:55:13;;;;;;;;;6.75;6.00;;;;;15.64;65.23;99422.09;5116323;28;8839;-58
2023/03/18 09:57:41;;;;;;;;;6.50;6.50;;;;;15.91;64.28;99413.72;5116500;28;8850;-59
2023/03/18 10:00:10;;;;;;;;;7.00;7.00;;;;;16.23;63.61;99414.50;5116808;28;8839;-61
2023/03/18 10:02:39;;;;;;;;;7.00;6.00;;;;;16.62;62.83;99410.09;5116063;28;8863;-59
2023/03/18 10:05:06;;;;;;;;;9.00;7.50;;;;;17.20;61.74;99414.00;5115691;28;8916;-59
2023/03/18 10:07:35;;;;;;;;;9.00;9.00;;;;;17.97;60.24;99412.97;5116035;28;8832;-58
2023/03/18 10:10:03;;;;;;;;;7.00;6.00;;;;;18.57;58.89;99400.25;5115843;28;8835;-61
2023/03/18 10:12:31;;;;;;;;;7.60;7.20;;;;;19.00;58.19;99394.84;5115357;28;8836;-59
2023/03/18 10:15:00;;;;;;;;;4.00;4.00;;;;;19.50;57.73;99394.00;5114973;28;8831;-59
2023/03/18 10:17:27;;;;;;;;;6.80;6.40;;;;;19.86;56.68;99403.72;5115208;28;8840;-60
2023/03/18 10:19:55;;;;;;;;;6.40;5.60;;;;;20.19;56.76;99396.75;5114949;28;8878;-59
2023/03/18 10:22:23;;;;;;;;;8.20;7.00;;;;;20.47;55.60;99389.47;5114294;28;8820;-61
2023/03/18 10:24:51;;;;;;;;;7.00;7.00;;;;;20.53;56.06;99391.38;5115375;28;8826;-59
2023/03/18 10:27:19;;;;;;;;;5.20;4.00;;;;;20.71;56.08;99394.41;5115489;28;8836;-59
2023/03/18 10:29:48;;;;;;;;;6.00;6.00;;;;;20.75;55.84;99398.38;5115329;28;8828;-62
2023/03/18 10:32:16;;;;;;;;;4.00;4.00;;;;;20.77;55.61;99390.91;5116191;28;8863;-60
2023/03/18 10:34:44;;;;;;;;;6.60;6.60;;;;;20.85;55.38;99393.44;5116451;28;8840;-60
2023/03/18 10:37:13;;;;;;;;;5.20;5.20;;;;;20.94;55.23;99393.09;5115366;28;8965;-59
2023/03/18 10:39:41;;;;;;;;;7.00;5.00;;;;;21.16;54.77;99391.09;5116034;28;8835;-60
2023/03/18 10:42:09;;;;;;;;;4.60;4.60;;;;;21.47;54.53;99391.41;5114076;28;8824;-60
2023/03/18 10:44:37;;;;;;;;;6.20;5.00;;;;;21.98;53.93;99390.72;5115204;28;9497;-60
2023/03/18 10:47:05;;;;;;;;;4.20;4.00;;;;;22.57;52.94;99390.69;5114634;28;8832;-60
2023/03/18 10:49:33;;;;;;;;;3.80;3.80;;;;;23.20;51.37;99384.44;5113461;28;8844;-60
2023/03/18 10:52:04;;;;;;;;;2.00;2.00;;;;;23.50;50.81;99385.53;5113374;28;8820;-60
2023/03/18 10:54:32;;;;;;;;;2.80;2.80;;;;;23.50;50.39;99386.38;5113860;28;8853;-61
2023/03/18 10:57:00;;;;;;;;;0.40;0.20;;;;;23.52;50.80;99394.34;5113614;28;8811;-59
2023/03/18 10:59:28;;;;;;;;;2.00;2.00;;;;;23.75;50.32;99387.28;5114229;28;8850;-59
2023/03/18 11:01:56;;;;;;;;;2.80;2.80;;;;;23.94;50.43;99383.63;5114808;28;8873;-61
2023/03/18 11:04:25;;;;;;;;;2.00;2.00;;;;;24.08;49.62;99387.91;5114782;28;8844;-60
2023/03/18 11:06:53;;;;;;;;;0.00;0.00;;;;;24.19;49.30;99378.19;5115382;28;8921;-59
2023/03/18 11:09:20;;;;;;;;;4.00;4.00;;;;;24.60;48.34;99386.63;5115478;28;8986;-60
2023/03/18 11:11:48;;;;;;;;;2.80;2.80;;;;;24.55;49.03;99375.53;5115419;28;8843;-61
2023/03/18 11:14:18;;;;;;;;;3.00;3.00;;;;;24.50;49.27;99370.75;5114305;28;8848;-61
2023/03/18 11:16:48;;;;;;;;;2.00;2.00;;;;;24.47;49.48;99378.53;5113870;28;9514;-60
2023/03/18 11:19:17;;;;;;;;;1.80;1.80;;;;;24.30;50.07;99372.00;5114185;28;8880;-61
2023/03/18 11:21:45;;;;;;;;;2.20;1.80;;;;;24.13;50.69;99371.72;5113964;28;8970;-61
2023/03/18 11:24:23;;;;;;;;;2.00;2.00;;;;;24.15;50.37;99377.81;5114398;28;9494;-60
2023/03/18 11:26:51;;;;;;;;;1.20;1.20;;;;;24.28;49.62;99374.13;5114386;28;8832;-62
2023/03/18 11:29:19;;;;;;;;;2.00;2.00;;;;;24.58;49.50;99372.41;5114331;28;9517;-60
2023/03/18 11:31:48;;;;;;;;;1.00;1.00;;;;;24.99;48.44;99369.81;5113967;28;8852;-61
2023/03/18 11:34:16;;;;;;;;;2.00;2.00;;;;;25.42;47.66;99376.03;5114280;28;8843;-60
2023/03/18 11:36:44;;;;;;;;;2.00;2.00;;;;;25.76;46.60;99374.25;5113524;28;8840;-60
2023/03/18 11:39:11;;;;;;;;;1.00;1.00;;;;;25.94;45.83;99373.38;5114389;28;8828;-62
2023/03/18 11:41:39;;;;;;;;;1.80;1.80;;;;;26.12;46.71;99368.66;5114543;28;8836;-60
2023/03/18 11:44:07;;;;;;;;;1.00;1.00;;;;;26.35;45.54;99367.84;5115651;28;8843;-60